Helmville, Montana
Current Conditions -  °F | °C
As of 9:53 PM on Saturday 22 Nov 2014 (Local Time) from KHLN Reporting Station
Clear Clear  
Wind Chill: 28°   Ceiling: Unl
Heat Index: 34°   Visibility: 10mi
Dew Point: 20°   Wind: 7mph
Humidity: 56%   Direction: 300°WNW
Pressure: 29.69"   Gusts: NA
Location:  46.87°N, 112.96°W
Report Text: KHLN 230453Z AUTO 30006KT 10SM CLR 01/M07 A2969 RMK AO2 SLP079 T00111067
Loading
Personal Weather Stations






























Interactive Weather Map New forecast layout! Learn more

10-Day Weather Forecast

Advertisements
Track Severe Weather on mobile